sensor_id;sensor_type;location;lat;lon;timestamp;P1;durP1;ratioP1;P2;durP2;ratioP2
1775;SDS011;885;42.626;23.200;2022-11-20T00:01:32;6.70;;;2.20;;
1775;SDS011;885;42.626;23.200;2022-11-20T00:04:00;7.63;;;2.40;;
1775;SDS011;885;42.626;23.200;2022-11-20T00:06:34;2.97;;;2.23;;
1775;SDS011;885;42.626;23.200;2022-11-20T00:09:01;2.00;;;1.73;;
1775;SDS011;885;42.626;23.200;2022-11-20T00:11:45;3.00;;;1.97;;
1775;SDS011;885;42.626;23.200;2022-11-20T00:14:12;7.50;;;2.10;;
1775;SDS011;885;42.626;23.200;2022-11-20T00:16:42;3.67;;;2.30;;
1775;SDS011;885;42.626;23.200;2022-11-20T00:19:09;2.90;;;2.10;;
1775;SDS011;885;42.626;23.200;2022-11-20T00:21:36;7.63;;;2.43;;
1775;SDS011;885;42.626;23.200;2022-11-20T00:24:13;3.27;;;2.90;;
1775;SDS011;885;42.626;23.200;2022-11-20T00:26:40;3.10;;;2.10;;
1775;SDS011;885;42.626;23.200;2022-11-20T00:29:09;3.03;;;2.30;;
1775;SDS011;885;42.626;23.200;2022-11-20T00:31:40;2.93;;;2.00;;
1775;SDS011;885;42.626;23.200;2022-11-20T00:34:08;4.43;;;1.93;;
1775;SDS011;885;42.626;23.200;2022-11-20T00:36:49;4.57;;;2.30;;
1775;SDS011;885;42.626;23.200;2022-11-20T00:39:16;3.23;;;2.07;;
1775;SDS011;885;42.626;23.200;2022-11-20T00:41:44;3.67;;;1.87;;
1775;SDS011;885;42.626;23.200;2022-11-20T00:44:17;4.33;;;2.00;;
1775;SDS011;885;42.626;23.200;2022-11-20T00:46:44;6.70;;;2.03;;
1775;SDS011;885;42.626;23.200;2022-11-20T00:49:12;3.57;;;2.30;;
1775;SDS011;885;42.626;23.200;2022-11-20T00:51:44;4.17;;;2.60;;
1775;SDS011;885;42.626;23.200;2022-11-20T00:54:11;4.33;;;2.20;;
1775;SDS011;885;42.626;23.200;2022-11-20T00:56:39;4.93;;;2.30;;
1775;SDS011;885;42.626;23.200;2022-11-20T00:59:06;4.50;;;2.37;;
1775;SDS011;885;42.626;23.200;2022-11-20T01:01:36;4.27;;;2.13;;
1775;SDS011;885;42.626;23.200;2022-11-20T01:04:05;2.00;;;1.80;;
1775;SDS011;885;42.626;23.200;2022-11-20T01:06:44;4.63;;;2.40;;
1775;SDS011;885;42.626;23.200;2022-11-20T01:09:13;2.70;;;2.30;;
1775;SDS011;885;42.626;23.200;2022-11-20T01:11:44;4.80;;;2.27;;
1775;SDS011;885;42.626;23.200;2022-11-20T01:20:11;7.43;;;2.10;;
1775;SDS011;885;42.626;23.200;2022-11-20T01:22:51;2.10;;;1.80;;
1775;SDS011;885;42.626;23.200;2022-11-20T01:25:23;1.80;;;1.53;;
1775;SDS011;885;42.626;23.200;2022-11-20T01:27:50;2.33;;;1.83;;
1775;SDS011;885;42.626;23.200;2022-11-20T01:30:17;4.80;;;1.63;;
1775;SDS011;885;42.626;23.200;2022-11-20T01:32:52;2.73;;;1.80;;
1775;SDS011;885;42.626;23.200;2022-11-20T01:35:21;2.60;;;1.43;;
1775;SDS011;885;42.626;23.200;2022-11-20T01:37:49;2.03;;;1.60;;
1775;SDS011;885;42.626;23.200;2022-11-20T01:40:24;3.97;;;2.10;;
1775;SDS011;885;42.626;23.200;2022-11-20T01:43:06;1.93;;;1.80;;
1775;SDS011;885;42.626;23.200;2022-11-20T01:46:12;6.43;;;1.90;;
1775;SDS011;885;42.626;23.200;2022-11-20T01:48:47;2.90;;;1.87;;
1775;SDS011;885;42.626;23.200;2022-11-20T01:51:20;2.20;;;1.57;;
1775;SDS011;885;42.626;23.200;2022-11-20T01:54:01;2.93;;;2.50;;
1775;SDS011;885;42.626;23.200;2022-11-20T01:56:38;2.00;;;1.50;;
1775;SDS011;885;42.626;23.200;2022-11-20T01:59:07;3.70;;;2.20;;
1775;SDS011;885;42.626;23.200;2022-11-20T02:02:09;1.70;;;1.60;;
1775;SDS011;885;42.626;23.200;2022-11-20T02:04:31;6.30;;;1.90;;
1775;SDS011;885;42.626;23.200;2022-11-20T02:07:00;2.00;;;1.70;;
1775;SDS011;885;42.626;23.200;2022-11-20T02:09:37;2.43;;;1.60;;
1775;SDS011;885;42.626;23.200;2022-11-20T02:12:16;2.77;;;1.90;;
1775;SDS011;885;42.626;23.200;2022-11-20T02:14:56;3.37;;;2.00;;
1775;SDS011;885;42.626;23.200;2022-11-20T02:17:26;3.10;;;1.90;;
1775;SDS011;885;42.626;23.200;2022-11-20T02:19:55;2.43;;;1.90;;
1775;SDS011;885;42.626;23.200;2022-11-20T02:22:31;2.30;;;1.70;;
1775;SDS011;885;42.626;23.200;2022-11-20T02:25:14;4.80;;;1.90;;
1775;SDS011;885;42.626;23.200;2022-11-20T02:27:42;2.03;;;1.80;;
1775;SDS011;885;42.626;23.200;2022-11-20T02:30:18;2.33;;;2.00;;
1775;SDS011;885;42.626;23.200;2022-11-20T02:32:47;2.37;;;1.83;;
1775;SDS011;885;42.626;23.200;2022-11-20T02:38:12;5.40;;;2.10;;
1775;SDS011;885;42.626;23.200;2022-11-20T02:40:42;2.93;;;2.03;;
1775;SDS011;885;42.626;23.200;2022-11-20T02:43:15;4.13;;;2.43;;
1775;SDS011;885;42.626;23.200;2022-11-20T02:45:45;8.90;;;5.23;;
1775;SDS011;885;42.626;23.200;2022-11-20T02:48:12;2.60;;;2.23;;
1775;SDS011;885;42.626;23.200;2022-11-20T03:02:27;4.93;;;2.37;;
1775;SDS011;885;42.626;23.200;2022-11-20T03:04:56;4.47;;;2.30;;
1775;SDS011;885;42.626;23.200;2022-11-20T03:07:22;4.50;;;2.60;;
1775;SDS011;885;42.626;23.200;2022-11-20T03:09:49;6.00;;;2.77;;
1775;SDS011;885;42.626;23.200;2022-11-20T03:12:16;5.70;;;2.70;;
1775;SDS011;885;42.626;23.200;2022-11-20T03:14:43;8.20;;;2.97;;
1775;SDS011;885;42.626;23.200;2022-11-20T03:17:10;7.30;;;2.53;;
1775;SDS011;885;42.626;23.200;2022-11-20T03:19:38;3.30;;;2.20;;
1775;SDS011;885;42.626;23.200;2022-11-20T03:22:05;4.27;;;2.03;;
1775;SDS011;885;42.626;23.200;2022-11-20T03:24:31;6.20;;;2.57;;
1775;SDS011;885;42.626;23.200;2022-11-20T03:26:58;4.20;;;2.30;;
1775;SDS011;885;42.626;23.200;2022-11-20T03:29:25;3.70;;;1.83;;
1775;SDS011;885;42.626;23.200;2022-11-20T03:31:52;2.40;;;2.07;;
1775;SDS011;885;42.626;23.200;2022-11-20T03:34:19;2.93;;;2.60;;
1775;SDS011;885;42.626;23.200;2022-11-20T03:36:47;4.80;;;2.37;;
1775;SDS011;885;42.626;23.200;2022-11-20T03:39:14;2.90;;;1.93;;
1775;SDS011;885;42.626;23.200;2022-11-20T03:41:41;3.30;;;2.10;;
1775;SDS011;885;42.626;23.200;2022-11-20T03:44:09;4.90;;;1.93;;
1775;SDS011;885;42.626;23.200;2022-11-20T03:46:37;3.60;;;2.53;;
1775;SDS011;885;42.626;23.200;2022-11-20T03:49:05;3.73;;;1.70;;
1775;SDS011;885;42.626;23.200;2022-11-20T03:51:33;13.60;;;7.90;;
1775;SDS011;885;42.626;23.200;2022-11-20T03:54:04;3.27;;;2.27;;
1775;SDS011;885;42.626;23.200;2022-11-20T03:56:33;3.57;;;2.10;;
1775;SDS011;885;42.626;23.200;2022-11-20T03:59:01;3.13;;;1.87;;
1775;SDS011;885;42.626;23.200;2022-11-20T04:01:29;2.50;;;2.30;;
1775;SDS011;885;42.626;23.200;2022-11-20T04:03:57;5.23;;;2.80;;
1775;SDS011;885;42.626;23.200;2022-11-20T04:06:24;3.13;;;2.20;;
1775;SDS011;885;42.626;23.200;2022-11-20T04:08:53;4.70;;;2.00;;
1775;SDS011;885;42.626;23.200;2022-11-20T04:11:23;3.50;;;1.80;;
1775;SDS011;885;42.626;23.200;2022-11-20T04:13:51;2.40;;;1.70;;
1775;SDS011;885;42.626;23.200;2022-11-20T04:16:20;2.90;;;2.63;;
1775;SDS011;885;42.626;23.200;2022-11-20T04:18:50;2.20;;;1.30;;
1775;SDS011;885;42.626;23.200;2022-11-20T04:21:18;2.77;;;2.00;;
1775;SDS011;885;42.626;23.200;2022-11-20T04:23:44;2.33;;;1.50;;
1775;SDS011;885;42.626;23.200;2022-11-20T04:26:11;4.60;;;2.60;;
1775;SDS011;885;42.626;23.200;2022-11-20T04:28:40;3.53;;;2.20;;
1775;SDS011;885;42.626;23.200;2022-11-20T04:31:07;3.40;;;1.63;;
1775;SDS011;885;42.626;23.200;2022-11-20T04:33:36;3.80;;;2.67;;
1775;SDS011;885;42.626;23.200;2022-11-20T04:36:04;2.20;;;1.97;;
1775;SDS011;885;42.626;23.200;2022-11-20T04:38:33;2.83;;;2.13;;
1775;SDS011;885;42.626;23.200;2022-11-20T04:41:00;4.37;;;1.80;;
1775;SDS011;885;42.626;23.200;2022-11-20T04:43:29;2.60;;;1.43;;
1775;SDS011;885;42.626;23.200;2022-11-20T04:45:57;3.60;;;2.60;;
1775;SDS011;885;42.626;23.200;2022-11-20T04:48:25;2.37;;;1.90;;
1775;SDS011;885;42.626;23.200;2022-11-20T04:50:53;2.83;;;2.30;;
1775;SDS011;885;42.626;23.200;2022-11-20T04:53:20;3.67;;;1.87;;
1775;SDS011;885;42.626;23.200;2022-11-20T04:55:48;2.80;;;2.00;;
1775;SDS011;885;42.626;23.200;2022-11-20T04:58:15;2.23;;;1.87;;
1775;SDS011;885;42.626;23.200;2022-11-20T05:00:42;3.53;;;1.90;;
1775;SDS011;885;42.626;23.200;2022-11-20T05:03:10;3.80;;;1.50;;
1775;SDS011;885;42.626;23.200;2022-11-20T05:05:37;3.07;;;2.17;;
1775;SDS011;885;42.626;23.200;2022-11-20T05:08:04;5.37;;;1.60;;
1775;SDS011;885;42.626;23.200;2022-11-20T05:10:31;3.07;;;2.00;;
1775;SDS011;885;42.626;23.200;2022-11-20T05:12:58;2.63;;;2.10;;
1775;SDS011;885;42.626;23.200;2022-11-20T05:15:25;5.57;;;2.07;;
1775;SDS011;885;42.626;23.200;2022-11-20T05:17:52;2.10;;;1.90;;
1775;SDS011;885;42.626;23.200;2022-11-20T05:20:20;4.50;;;2.17;;
1775;SDS011;885;42.626;23.200;2022-11-20T05:22:47;3.30;;;2.10;;
1775;SDS011;885;42.626;23.200;2022-11-20T05:25:14;2.90;;;1.70;;
1775;SDS011;885;42.626;23.200;2022-11-20T05:27:41;2.73;;;1.80;;
1775;SDS011;885;42.626;23.200;2022-11-20T05:30:08;3.13;;;1.90;;
1775;SDS011;885;42.626;23.200;2022-11-20T05:32:36;3.10;;;2.37;;
1775;SDS011;885;42.626;23.200;2022-11-20T05:35:03;6.00;;;2.50;;
1775;SDS011;885;42.626;23.200;2022-11-20T05:37:31;5.67;;;2.70;;
1775;SDS011;885;42.626;23.200;2022-11-20T05:39:58;4.80;;;1.90;;
1775;SDS011;885;42.626;23.200;2022-11-20T05:42:25;4.83;;;2.10;;
1775;SDS011;885;42.626;23.200;2022-11-20T05:44:58;4.30;;;1.90;;
1775;SDS011;885;42.626;23.200;2022-11-20T05:47:26;3.63;;;3.10;;
1775;SDS011;885;42.626;23.200;2022-11-20T05:49:53;3.13;;;1.73;;
1775;SDS011;885;42.626;23.200;2022-11-20T05:52:19;2.50;;;2.10;;
1775;SDS011;885;42.626;23.200;2022-11-20T05:54:48;3.50;;;2.33;;
1775;SDS011;885;42.626;23.200;2022-11-20T05:57:15;6.23;;;4.20;;
1775;SDS011;885;42.626;23.200;2022-11-20T05:59:42;3.37;;;2.03;;
1775;SDS011;885;42.626;23.200;2022-11-20T06:02:09;4.50;;;1.60;;
1775;SDS011;885;42.626;23.200;2022-11-20T06:04:36;2.03;;;1.70;;
1775;SDS011;885;42.626;23.200;2022-11-20T06:07:04;2.47;;;1.73;;
1775;SDS011;885;42.626;23.200;2022-11-20T06:09:31;4.10;;;1.93;;
1775;SDS011;885;42.626;23.200;2022-11-20T06:11:59;2.87;;;1.90;;
1775;SDS011;885;42.626;23.200;2022-11-20T06:14:26;11.63;;;3.80;;
1775;SDS011;885;42.626;23.200;2022-11-20T06:16:53;5.27;;;2.37;;
1775;SDS011;885;42.626;23.200;2022-11-20T06:19:20;4.57;;;1.67;;
1775;SDS011;885;42.626;23.200;2022-11-20T06:21:47;3.80;;;2.43;;
1775;SDS011;885;42.626;23.200;2022-11-20T06:24:14;2.47;;;2.27;;
1775;SDS011;885;42.626;23.200;2022-11-20T06:26:41;7.00;;;2.43;;
1775;SDS011;885;42.626;23.200;2022-11-20T06:29:10;8.53;;;3.40;;
1775;SDS011;885;42.626;23.200;2022-11-20T06:31:37;11.20;;;3.03;;
1775;SDS011;885;42.626;23.200;2022-11-20T06:34:04;2.70;;;2.00;;
1775;SDS011;885;42.626;23.200;2022-11-20T06:36:31;2.60;;;1.80;;
1775;SDS011;885;42.626;23.200;2022-11-20T06:38:59;2.83;;;1.43;;
1775;SDS011;885;42.626;23.200;2022-11-20T06:41:26;5.17;;;2.40;;
1775;SDS011;885;42.626;23.200;2022-11-20T06:43:54;4.07;;;3.07;;
1775;SDS011;885;42.626;23.200;2022-11-20T06:46:22;3.30;;;2.20;;
1775;SDS011;885;42.626;23.200;2022-11-20T06:48:49;9.50;;;5.93;;
1775;SDS011;885;42.626;23.200;2022-11-20T06:51:16;2.57;;;1.97;;
1775;SDS011;885;42.626;23.200;2022-11-20T06:53:44;4.13;;;2.23;;
1775;SDS011;885;42.626;23.200;2022-11-20T06:56:10;2.50;;;1.80;;
1775;SDS011;885;42.626;23.200;2022-11-20T06:58:37;10.70;;;4.90;;
1775;SDS011;885;42.626;23.200;2022-11-20T07:01:05;21.70;;;14.00;;
1775;SDS011;885;42.626;23.200;2022-11-20T07:03:34;6.53;;;3.03;;
1775;SDS011;885;42.626;23.200;2022-11-20T07:06:01;29.27;;;17.63;;
1775;SDS011;885;42.626;23.200;2022-11-20T07:08:30;5.20;;;2.17;;
1775;SDS011;885;42.626;23.200;2022-11-20T07:10:58;5.77;;;2.30;;
1775;SDS011;885;42.626;23.200;2022-11-20T07:13:28;3.93;;;2.30;;
1775;SDS011;885;42.626;23.200;2022-11-20T07:15:55;2.33;;;2.13;;
1775;SDS011;885;42.626;23.200;2022-11-20T07:18:26;13.90;;;7.23;;
1775;SDS011;885;42.626;23.200;2022-11-20T07:20:54;6.37;;;4.73;;
1775;SDS011;885;42.626;23.200;2022-11-20T07:23:21;16.93;;;10.17;;
1775;SDS011;885;42.626;23.200;2022-11-20T07:25:48;14.53;;;9.97;;
1775;SDS011;885;42.626;23.200;2022-11-20T07:28:15;17.63;;;12.00;;
1775;SDS011;885;42.626;23.200;2022-11-20T07:30:41;10.83;;;4.57;;
1775;SDS011;885;42.626;23.200;2022-11-20T07:33:08;3.67;;;2.30;;
1775;SDS011;885;42.626;23.200;2022-11-20T07:35:35;23.67;;;13.77;;
1775;SDS011;885;42.626;23.200;2022-11-20T07:38:03;6.13;;;3.40;;
1775;SDS011;885;42.626;23.200;2022-11-20T07:40:30;13.40;;;5.60;;
1775;SDS011;885;42.626;23.200;2022-11-20T07:42:57;4.83;;;2.53;;
1775;SDS011;885;42.626;23.200;2022-11-20T07:45:24;3.43;;;2.00;;
1775;SDS011;885;42.626;23.200;2022-11-20T07:47:51;5.97;;;3.70;;
1775;SDS011;885;42.626;23.200;2022-11-20T07:50:18;11.93;;;2.83;;
1775;SDS011;885;42.626;23.200;2022-11-20T07:52:45;4.77;;;2.40;;
1775;SDS011;885;42.626;23.200;2022-11-20T07:55:14;6.73;;;3.23;;
1775;SDS011;885;42.626;23.200;2022-11-20T07:57:41;8.47;;;4.77;;
1775;SDS011;885;42.626;23.200;2022-11-20T08:00:09;6.40;;;3.90;;
1775;SDS011;885;42.626;23.200;2022-11-20T08:02:37;6.17;;;3.60;;
1775;SDS011;885;42.626;23.200;2022-11-20T08:05:05;6.07;;;1.90;;
1775;SDS011;885;42.626;23.200;2022-11-20T08:07:35;7.07;;;2.30;;
1775;SDS011;885;42.626;23.200;2022-11-20T08:10:03;5.27;;;2.77;;
1775;SDS011;885;42.626;23.200;2022-11-20T08:12:31;8.37;;;5.83;;
1775;SDS011;885;42.626;23.200;2022-11-20T08:15:15;4.90;;;3.33;;
1775;SDS011;885;42.626;23.200;2022-11-20T08:17:42;5.27;;;2.20;;
1775;SDS011;885;42.626;23.200;2022-11-20T08:20:09;4.90;;;2.77;;
1775;SDS011;885;42.626;23.200;2022-11-20T08:22:36;3.73;;;2.73;;
1775;SDS011;885;42.626;23.200;2022-11-20T08:25:03;4.47;;;2.60;;
1775;SDS011;885;42.626;23.200;2022-11-20T08:27:32;7.80;;;3.73;;
1775;SDS011;885;42.626;23.200;2022-11-20T08:29:59;7.73;;;3.40;;
1775;SDS011;885;42.626;23.200;2022-11-20T08:32:26;6.80;;;3.40;;
1775;SDS011;885;42.626;23.200;2022-11-20T08:34:53;7.10;;;3.47;;
1775;SDS011;885;42.626;23.200;2022-11-20T08:37:19;6.40;;;3.60;;
1775;SDS011;885;42.626;23.200;2022-11-20T08:39:46;7.87;;;3.40;;
1775;SDS011;885;42.626;23.200;2022-11-20T08:42:13;8.50;;;3.20;;
1775;SDS011;885;42.626;23.200;2022-11-20T08:44:41;7.70;;;4.60;;
1775;SDS011;885;42.626;23.200;2022-11-20T08:47:08;7.60;;;4.50;;
1775;SDS011;885;42.626;23.200;2022-11-20T08:49:35;5.60;;;4.40;;
1775;SDS011;885;42.626;23.200;2022-11-20T08:52:02;5.37;;;4.80;;
1775;SDS011;885;42.626;23.200;2022-11-20T08:54:29;10.17;;;5.23;;
1775;SDS011;885;42.626;23.200;2022-11-20T08:56:56;11.10;;;6.10;;
1775;SDS011;885;42.626;23.200;2022-11-20T08:59:22;10.03;;;5.47;;
1775;SDS011;885;42.626;23.200;2022-11-20T09:01:51;6.33;;;5.43;;
1775;SDS011;885;42.626;23.200;2022-11-20T09:04:17;8.43;;;7.00;;
1775;SDS011;885;42.626;23.200;2022-11-20T09:06:44;9.73;;;5.87;;
1775;SDS011;885;42.626;23.200;2022-11-20T09:09:11;8.63;;;4.17;;
1775;SDS011;885;42.626;23.200;2022-11-20T09:11:38;6.70;;;3.40;;
1775;SDS011;885;42.626;23.200;2022-11-20T09:14:04;3.10;;;2.80;;
1775;SDS011;885;42.626;23.200;2022-11-20T09:16:31;5.83;;;3.27;;
1775;SDS011;885;42.626;23.200;2022-11-20T09:18:59;5.40;;;3.00;;
1775;SDS011;885;42.626;23.200;2022-11-20T09:21:26;7.63;;;2.80;;
1775;SDS011;885;42.626;23.200;2022-11-20T09:23:53;3.70;;;2.93;;
1775;SDS011;885;42.626;23.200;2022-11-20T09:26:20;6.47;;;3.03;;
1775;SDS011;885;42.626;23.200;2022-11-20T09:28:46;8.27;;;3.67;;
1775;SDS011;885;42.626;23.200;2022-11-20T09:31:16;5.70;;;3.50;;
1775;SDS011;885;42.626;23.200;2022-11-20T09:33:48;5.90;;;2.90;;
1775;SDS011;885;42.626;23.200;2022-11-20T09:36:17;4.37;;;2.67;;
1775;SDS011;885;42.626;23.200;2022-11-20T09:38:44;8.13;;;4.07;;
1775;SDS011;885;42.626;23.200;2022-11-20T09:41:18;6.53;;;3.20;;
1775;SDS011;885;42.626;23.200;2022-11-20T09:44:02;3.63;;;3.20;;
1775;SDS011;885;42.626;23.200;2022-11-20T09:46:37;7.10;;;3.10;;
1775;SDS011;885;42.626;23.200;2022-11-20T09:49:17;10.43;;;3.33;;
1775;SDS011;885;42.626;23.200;2022-11-20T09:51:58;6.93;;;4.00;;
1775;SDS011;885;42.626;23.200;2022-11-20T09:54:27;11.67;;;4.93;;
1775;SDS011;885;42.626;23.200;2022-11-20T09:56:58;9.17;;;5.97;;
1775;SDS011;885;42.626;23.200;2022-11-20T09:59:32;9.57;;;6.73;;
1775;SDS011;885;42.626;23.200;2022-11-20T10:02:08;18.37;;;11.57;;
1775;SDS011;885;42.626;23.200;2022-11-20T10:04:43;14.43;;;11.43;;
1775;SDS011;885;42.626;23.200;2022-11-20T10:07:16;11.07;;;9.30;;
1775;SDS011;885;42.626;23.200;2022-11-20T10:09:49;21.83;;;14.23;;
1775;SDS011;885;42.626;23.200;2022-11-20T10:12:19;21.20;;;13.83;;
1775;SDS011;885;42.626;23.200;2022-11-20T10:14:58;9.43;;;6.10;;
1775;SDS011;885;42.626;23.200;2022-11-20T10:17:46;10.80;;;7.90;;
1775;SDS011;885;42.626;23.200;2022-11-20T10:20:24;7.93;;;6.17;;
1775;SDS011;885;42.626;23.200;2022-11-20T10:23:03;26.73;;;15.13;;
1775;SDS011;885;42.626;23.200;2022-11-20T10:25:49;10.30;;;7.83;;
1775;SDS011;885;42.626;23.200;2022-11-20T10:28:28;19.73;;;11.27;;
1775;SDS011;885;42.626;23.200;2022-11-20T10:31:07;10.77;;;6.77;;
1775;SDS011;885;42.626;23.200;2022-11-20T10:33:38;10.63;;;7.07;;
1775;SDS011;885;42.626;23.200;2022-11-20T10:36:09;19.50;;;8.90;;
1775;SDS011;885;42.626;23.200;2022-11-20T10:38:44;15.60;;;7.40;;
1775;SDS011;885;42.626;23.200;2022-11-20T10:41:16;15.30;;;7.80;;
1775;SDS011;885;42.626;23.200;2022-11-20T10:43:53;11.23;;;6.60;;
1775;SDS011;885;42.626;23.200;2022-11-20T10:46:32;13.23;;;7.20;;
1775;SDS011;885;42.626;23.200;2022-11-20T10:49:10;20.17;;;11.60;;
1775;SDS011;885;42.626;23.200;2022-11-20T10:51:40;64.50;;;37.80;;
1775;SDS011;885;42.626;23.200;2022-11-20T10:54:19;34.03;;;21.47;;
1775;SDS011;885;42.626;23.200;2022-11-20T10:56:56;18.60;;;13.83;;
1775;SDS011;885;42.626;23.200;2022-11-20T10:59:37;19.63;;;12.53;;
1775;SDS011;885;42.626;23.200;2022-11-20T11:02:16;4.77;;;4.23;;
1775;SDS011;885;42.626;23.200;2022-11-20T11:04:45;3.30;;;2.60;;
1775;SDS011;885;42.626;23.200;2022-11-20T11:07:15;2.87;;;2.00;;
1775;SDS011;885;42.626;23.200;2022-11-20T11:09:46;3.13;;;1.20;;
1775;SDS011;885;42.626;23.200;2022-11-20T11:12:15;3.70;;;2.33;;
1775;SDS011;885;42.626;23.200;2022-11-20T11:14:42;4.10;;;2.93;;
1775;SDS011;885;42.626;23.200;2022-11-20T11:17:18;3.13;;;2.33;;
1775;SDS011;885;42.626;23.200;2022-11-20T11:19:56;5.10;;;3.30;;
1775;SDS011;885;42.626;23.200;2022-11-20T11:22:24;9.63;;;6.83;;
1775;SDS011;885;42.626;23.200;2022-11-20T11:24:56;2.17;;;1.80;;
1775;SDS011;885;42.626;23.200;2022-11-20T11:27:22;2.97;;;2.40;;
1775;SDS011;885;42.626;23.200;2022-11-20T11:29:49;3.80;;;3.13;;
1775;SDS011;885;42.626;23.200;2022-11-20T11:32:17;3.93;;;1.57;;
1775;SDS011;885;42.626;23.200;2022-11-20T11:34:57;3.70;;;2.37;;
1775;SDS011;885;42.626;23.200;2022-11-20T11:37:25;1.90;;;1.80;;
1775;SDS011;885;42.626;23.200;2022-11-20T11:40:01;6.50;;;4.70;;
1775;SDS011;885;42.626;23.200;2022-11-20T11:42:30;4.83;;;3.40;;
1775;SDS011;885;42.626;23.200;2022-11-20T11:44:58;4.73;;;3.20;;
1775;SDS011;885;42.626;23.200;2022-11-20T11:47:32;2.40;;;2.20;;
1775;SDS011;885;42.626;23.200;2022-11-20T11:50:08;2.53;;;2.30;;
1775;SDS011;885;42.626;23.200;2022-11-20T11:52:42;4.37;;;3.83;;
1775;SDS011;885;42.626;23.200;2022-11-20T11:55:15;2.40;;;2.20;;
1775;SDS011;885;42.626;23.200;2022-11-20T11:57:49;4.30;;;2.20;;
1775;SDS011;885;42.626;23.200;2022-11-20T12:00:21;3.93;;;3.63;;
1775;SDS011;885;42.626;23.200;2022-11-20T12:02:52;2.50;;;2.23;;
1775;SDS011;885;42.626;23.200;2022-11-20T12:05:29;2.57;;;1.90;;
1775;SDS011;885;42.626;23.200;2022-11-20T12:08:03;2.90;;;2.47;;
1775;SDS011;885;42.626;23.200;2022-11-20T12:10:39;1.87;;;1.33;;
1775;SDS011;885;42.626;23.200;2022-11-20T12:13:15;1.67;;;1.37;;
1775;SDS011;885;42.626;23.200;2022-11-20T12:15:48;2.73;;;1.90;;
1775;SDS011;885;42.626;23.200;2022-11-20T12:18:16;5.23;;;4.83;;
1775;SDS011;885;42.626;23.200;2022-11-20T12:20:45;4.20;;;2.03;;
1775;SDS011;885;42.626;23.200;2022-11-20T12:23:22;3.43;;;2.40;;
1775;SDS011;885;42.626;23.200;2022-11-20T12:25:56;3.93;;;1.77;;
1775;SDS011;885;42.626;23.200;2022-11-20T12:28:30;3.00;;;1.40;;
1775;SDS011;885;42.626;23.200;2022-11-20T12:31:09;1.73;;;1.20;;
1775;SDS011;885;42.626;23.200;2022-11-20T12:33:55;1.90;;;1.23;;
1775;SDS011;885;42.626;23.200;2022-11-20T12:36:40;3.00;;;2.80;;
1775;SDS011;885;42.626;23.200;2022-11-20T12:39:27;2.53;;;2.33;;
1775;SDS011;885;42.626;23.200;2022-11-20T12:42:05;2.53;;;2.17;;
1775;SDS011;885;42.626;23.200;2022-11-20T12:45:12;2.20;;;1.47;;
1775;SDS011;885;42.626;23.200;2022-11-20T12:47:57;5.23;;;4.53;;
1775;SDS011;885;42.626;23.200;2022-11-20T12:50:42;3.37;;;2.20;;
1775;SDS011;885;42.626;23.200;2022-11-20T12:53:22;2.33;;;1.47;;
1775;SDS011;885;42.626;23.200;2022-11-20T12:55:59;3.77;;;3.47;;
1775;SDS011;885;42.626;23.200;2022-11-20T12:58:39;3.27;;;2.23;;
1775;SDS011;885;42.626;23.200;2022-11-20T13:01:19;4.20;;;2.70;;
1775;SDS011;885;42.626;23.200;2022-11-20T13:04:07;4.40;;;3.60;;
1775;SDS011;885;42.626;23.200;2022-11-20T13:06:41;8.20;;;5.30;;
1775;SDS011;885;42.626;23.200;2022-11-20T13:09:10;5.13;;;4.63;;
1775;SDS011;885;42.626;23.200;2022-11-20T13:11:41;14.30;;;12.20;;
1775;SDS011;885;42.626;23.200;2022-11-20T13:14:19;10.10;;;4.43;;
1775;SDS011;885;42.626;23.200;2022-11-20T13:16:58;14.60;;;10.30;;
1775;SDS011;885;42.626;23.200;2022-11-20T13:19:31;11.37;;;7.90;;
1775;SDS011;885;42.626;23.200;2022-11-20T13:21:58;7.83;;;3.53;;
1775;SDS011;885;42.626;23.200;2022-11-20T13:24:26;13.40;;;8.00;;
1775;SDS011;885;42.626;23.200;2022-11-20T13:27:16;9.40;;;4.13;;
1775;SDS011;885;42.626;23.200;2022-11-20T13:29:58;12.63;;;5.33;;
1775;SDS011;885;42.626;23.200;2022-11-20T13:32:29;9.03;;;5.00;;
1775;SDS011;885;42.626;23.200;2022-11-20T13:34:58;12.00;;;5.03;;
1775;SDS011;885;42.626;23.200;2022-11-20T13:37:28;15.60;;;7.97;;
1775;SDS011;885;42.626;23.200;2022-11-20T13:40:11;55.07;;;28.17;;
1775;SDS011;885;42.626;23.200;2022-11-20T13:42:43;30.50;;;26.40;;
1775;SDS011;885;42.626;23.200;2022-11-20T13:45:21;29.30;;;18.80;;
1775;SDS011;885;42.626;23.200;2022-11-20T13:47:51;125.53;;;59.60;;
1775;SDS011;885;42.626;23.200;2022-11-20T13:50:19;65.00;;;36.40;;
1775;SDS011;885;42.626;23.200;2022-11-20T13:52:55;157.27;;;75.27;;
1775;SDS011;885;42.626;23.200;2022-11-20T13:55:32;51.80;;;27.20;;
1775;SDS011;885;42.626;23.200;2022-11-20T13:58:07;85.03;;;43.80;;
1775;SDS011;885;42.626;23.200;2022-11-20T14:00:50;36.83;;;22.97;;
1775;SDS011;885;42.626;23.200;2022-11-20T14:03:22;41.30;;;22.70;;
1775;SDS011;885;42.626;23.200;2022-11-20T14:05:51;31.00;;;19.70;;
1775;SDS011;885;42.626;23.200;2022-11-20T14:08:25;34.83;;;19.53;;
1775;SDS011;885;42.626;23.200;2022-11-20T14:11:03;11.00;;;6.27;;
1775;SDS011;885;42.626;23.200;2022-11-20T14:13:31;11.17;;;7.30;;
1775;SDS011;885;42.626;23.200;2022-11-20T14:16:00;23.37;;;20.80;;
1775;SDS011;885;42.626;23.200;2022-11-20T14:18:26;20.20;;;13.67;;
1775;SDS011;885;42.626;23.200;2022-11-20T14:20:54;14.67;;;6.83;;
1775;SDS011;885;42.626;23.200;2022-11-20T14:23:25;17.60;;;9.90;;
1775;SDS011;885;42.626;23.200;2022-11-20T14:25:52;15.03;;;8.27;;
1775;SDS011;885;42.626;23.200;2022-11-20T14:28:21;22.23;;;8.37;;
1775;SDS011;885;42.626;23.200;2022-11-20T14:30:52;10.73;;;4.50;;
1775;SDS011;885;42.626;23.200;2022-11-20T14:33:21;6.47;;;5.13;;
1775;SDS011;885;42.626;23.200;2022-11-20T14:35:51;9.17;;;6.10;;
1775;SDS011;885;42.626;23.200;2022-11-20T14:38:21;11.80;;;5.37;;
1775;SDS011;885;42.626;23.200;2022-11-20T14:40:51;6.83;;;4.40;;
1775;SDS011;885;42.626;23.200;2022-11-20T14:43:19;7.03;;;5.23;;
1775;SDS011;885;42.626;23.200;2022-11-20T14:45:50;10.70;;;6.33;;
1775;SDS011;885;42.626;23.200;2022-11-20T14:48:24;8.63;;;7.40;;
1775;SDS011;885;42.626;23.200;2022-11-20T14:50:56;7.80;;;7.00;;
1775;SDS011;885;42.626;23.200;2022-11-20T14:53:23;8.90;;;6.70;;
1775;SDS011;885;42.626;23.200;2022-11-20T14:55:54;8.83;;;6.50;;
1775;SDS011;885;42.626;23.200;2022-11-20T14:58:23;4.87;;;3.50;;
1775;SDS011;885;42.626;23.200;2022-11-20T15:00:53;9.73;;;3.33;;
1775;SDS011;885;42.626;23.200;2022-11-20T15:03:21;3.93;;;3.53;;
1775;SDS011;885;42.626;23.200;2022-11-20T15:05:49;5.07;;;4.10;;
1775;SDS011;885;42.626;23.200;2022-11-20T15:08:17;4.07;;;2.87;;
1775;SDS011;885;42.626;23.200;2022-11-20T15:10:45;10.53;;;5.90;;
1775;SDS011;885;42.626;23.200;2022-11-20T15:13:13;6.00;;;5.00;;
1775;SDS011;885;42.626;23.200;2022-11-20T15:15:45;7.33;;;3.80;;
1775;SDS011;885;42.626;23.200;2022-11-20T15:18:14;5.03;;;3.43;;
1775;SDS011;885;42.626;23.200;2022-11-20T15:20:42;3.83;;;3.40;;
1775;SDS011;885;42.626;23.200;2022-11-20T15:23:12;2.60;;;2.40;;
1775;SDS011;885;42.626;23.200;2022-11-20T15:25:41;4.40;;;2.43;;
1775;SDS011;885;42.626;23.200;2022-11-20T15:28:12;5.97;;;2.50;;
1775;SDS011;885;42.626;23.200;2022-11-20T15:30:42;3.90;;;3.00;;
1775;SDS011;885;42.626;23.200;2022-11-20T15:33:09;6.87;;;5.23;;
1775;SDS011;885;42.626;23.200;2022-11-20T15:35:36;4.10;;;3.43;;
1775;SDS011;885;42.626;23.200;2022-11-20T15:38:03;7.50;;;5.80;;
1775;SDS011;885;42.626;23.200;2022-11-20T15:40:31;13.70;;;9.43;;
1775;SDS011;885;42.626;23.200;2022-11-20T15:42:58;6.47;;;4.30;;
1775;SDS011;885;42.626;23.200;2022-11-20T15:45:37;4.07;;;3.67;;
1775;SDS011;885;42.626;23.200;2022-11-20T15:48:08;3.97;;;3.40;;
1775;SDS011;885;42.626;23.200;2022-11-20T15:50:38;13.77;;;12.17;;
1775;SDS011;885;42.626;23.200;2022-11-20T15:53:18;22.20;;;16.40;;